Marland, OK (74644)

19:32 CST le 24 novembre 2014 (GMT -0600)
Downtown | Change Station
CLOSE
Current Station
Stations météorologiques personnelles
Location: Marland, OK
Altitude: 1040 ft
Stations météo à proximité

Alt. 1040 ft 36.56 °N, 97.15 °W | Updated 2 minutes ago

Ciel dégagé
Ciel dégagé
43.3 ° F
Paraît 43 ° F
N
1.0
Vent Variable Vent de Ouest
Gusts 1.0 mph

Aujourd'hui
Haut(e) -- | Bas -- ° F
--% Risque de précip.
Hier
Haut(e) -- | Bas -- ° F
Precip. -- pouce
7:15 AM 5:15 PM
Lune montante, 8% visible
Pression 30.07 pouce
Visibilité 10.0 Miles terrestres
Nuages Ciel dégagé
Refroidissement éolien 43 ° F
Point de rosée 23 ° F
Humidité 45%
Précipitations 0.00 pouce
Profondeur de la couche neigeuse Non disponible.
UV 0 sur 12
Pollen 3.80 sur 12
Qualité de l'air Non disponible.
Flu Activity Non disponible.
METAR KPNC 250053Z AUTO 34003KT 10SM CLR 05/M06 A3005 RMK AO2 SLP181 T00501056

More Conditions Fewer Conditions

Pression 30.07 pouce
Visibilité 10.0 Miles terrestres
Nuages Ciel dégagé
Refroidissement éolien 43 ° F
Point de rosée 23 ° F
Humidité 45%
Précipitations 0.00 pouce
Profondeur de la couche neigeuse Non disponible.
UV 0 sur 12
Pollen 3.80 sur 12
Qualité de l'air Non disponible.
Flu Activity Non disponible.
METAR KPNC 250053Z AUTO 34003KT 10SM CLR 05/M06 A3005 RMK AO2 SLP181 T00501056

More Conditions Fewer Conditions

10-Day Weather Forecast

Almanac

Astronomie

Nov. 24, 2014 Lever Coucher
Temps réel
Crépuscule civil
Crépuscule nautique
Crépuscule astronomique
Lune
Durée de lumière visible
Longueur du jour
Tomorrow will be .
, % of the Moon is Illuminated

Extrêmes aujourd'hui

State Highs State Lows

Community

WunderPhotos

Upload Photos

1,773,457 Photos téléchargées !

WunderBlogs® & News

Nearby

Qualité de l'air

  Qualité de l'air Indice de la qualité de l'air Polluant
Not available.

Épaisseur de neige

Station Depth Altitude

Activité sismique

Ville Distance Mag. Time & Date
Minimum magnitude displayed is 2.5.

Températures des eaux côtières

Lieu Température

Stations météo à proximité